sensor_id;sensor_type;location;lat;lon;timestamp;P1;durP1;ratioP1;P2;durP2;ratioP2
21492;SDS011;10908;50.690;4.400;2022-12-05T00:03:53;64.60;;;25.95;;
21492;SDS011;10908;50.690;4.400;2022-12-05T00:06:21;62.88;;;26.20;;
21492;SDS011;10908;50.690;4.400;2022-12-05T00:08:48;57.13;;;25.38;;
21492;SDS011;10908;50.690;4.400;2022-12-05T00:11:17;55.85;;;25.00;;
21492;SDS011;10908;50.690;4.400;2022-12-05T00:13:44;55.72;;;24.63;;
21492;SDS011;10908;50.690;4.400;2022-12-05T00:16:13;52.92;;;24.45;;
21492;SDS011;10908;50.690;4.400;2022-12-05T00:18:41;55.25;;;24.80;;
21492;SDS011;10908;50.690;4.400;2022-12-05T00:21:11;51.95;;;23.25;;
21492;SDS011;10908;50.690;4.400;2022-12-05T00:23:39;56.13;;;25.02;;
21492;SDS011;10908;50.690;4.400;2022-12-05T00:26:05;51.95;;;23.75;;
21492;SDS011;10908;50.690;4.400;2022-12-05T00:28:32;53.47;;;24.08;;
21492;SDS011;10908;50.690;4.400;2022-12-05T00:31:04;49.85;;;23.60;;
21492;SDS011;10908;50.690;4.400;2022-12-05T00:33:32;49.25;;;22.95;;
21492;SDS011;10908;50.690;4.400;2022-12-05T00:36:01;53.42;;;23.33;;
21492;SDS011;10908;50.690;4.400;2022-12-05T00:38:35;52.45;;;23.40;;
21492;SDS011;10908;50.690;4.400;2022-12-05T00:41:02;49.95;;;23.23;;
21492;SDS011;10908;50.690;4.400;2022-12-05T00:43:28;46.10;;;22.08;;
21492;SDS011;10908;50.690;4.400;2022-12-05T00:45:54;48.65;;;22.80;;
21492;SDS011;10908;50.690;4.400;2022-12-05T00:48:19;47.80;;;22.30;;
21492;SDS011;10908;50.690;4.400;2022-12-05T00:50:45;44.92;;;22.20;;
21492;SDS011;10908;50.690;4.400;2022-12-05T00:53:10;41.80;;;20.80;;
21492;SDS011;10908;50.690;4.400;2022-12-05T00:55:36;47.83;;;21.13;;
21492;SDS011;10908;50.690;4.400;2022-12-05T00:58:02;43.95;;;21.58;;
21492;SDS011;10908;50.690;4.400;2022-12-05T01:00:28;40.35;;;19.65;;
21492;SDS011;10908;50.690;4.400;2022-12-05T01:02:54;39.83;;;20.30;;
21492;SDS011;10908;50.690;4.400;2022-12-05T01:05:19;42.25;;;20.27;;
21492;SDS011;10908;50.690;4.400;2022-12-05T01:07:45;45.85;;;20.52;;
21492;SDS011;10908;50.690;4.400;2022-12-05T01:10:11;45.55;;;19.75;;
21492;SDS011;10908;50.690;4.400;2022-12-05T01:12:37;42.35;;;19.85;;
21492;SDS011;10908;50.690;4.400;2022-12-05T01:15:02;39.72;;;19.92;;
21492;SDS011;10908;50.690;4.400;2022-12-05T01:17:28;40.42;;;18.75;;
21492;SDS011;10908;50.690;4.400;2022-12-05T01:19:54;39.50;;;19.63;;
21492;SDS011;10908;50.690;4.400;2022-12-05T01:22:20;41.65;;;20.08;;
21492;SDS011;10908;50.690;4.400;2022-12-05T01:24:46;41.45;;;19.23;;
21492;SDS011;10908;50.690;4.400;2022-12-05T01:27:11;37.28;;;18.60;;
21492;SDS011;10908;50.690;4.400;2022-12-05T01:29:37;35.05;;;18.10;;
21492;SDS011;10908;50.690;4.400;2022-12-05T01:32:03;37.60;;;18.50;;
21492;SDS011;10908;50.690;4.400;2022-12-05T01:34:28;37.47;;;18.33;;
21492;SDS011;10908;50.690;4.400;2022-12-05T01:36:54;36.55;;;17.95;;
21492;SDS011;10908;50.690;4.400;2022-12-05T01:39:20;37.55;;;17.88;;
21492;SDS011;10908;50.690;4.400;2022-12-05T01:41:47;40.13;;;18.80;;
21492;SDS011;10908;50.690;4.400;2022-12-05T01:46:44;35.78;;;18.08;;
21492;SDS011;10908;50.690;4.400;2022-12-05T01:49:19;36.47;;;18.30;;
21492;SDS011;10908;50.690;4.400;2022-12-05T01:54:38;38.72;;;18.02;;
21492;SDS011;10908;50.690;4.400;2022-12-05T01:57:05;38.22;;;17.65;;
21492;SDS011;10908;50.690;4.400;2022-12-05T01:59:35;34.40;;;17.38;;
21492;SDS011;10908;50.690;4.400;2022-12-05T02:02:03;35.47;;;17.27;;
21492;SDS011;10908;50.690;4.400;2022-12-05T02:04:30;36.67;;;17.50;;
21492;SDS011;10908;50.690;4.400;2022-12-05T02:07:00;37.00;;;17.98;;
21492;SDS011;10908;50.690;4.400;2022-12-05T02:09:26;35.92;;;17.08;;
21492;SDS011;10908;50.690;4.400;2022-12-05T02:11:53;33.50;;;16.73;;
21492;SDS011;10908;50.690;4.400;2022-12-05T02:14:37;34.53;;;17.42;;
21492;SDS011;10908;50.690;4.400;2022-12-05T02:37:17;31.80;;;15.65;;
21492;SDS011;10908;50.690;4.400;2022-12-05T02:40:14;29.27;;;15.05;;
21492;SDS011;10908;50.690;4.400;2022-12-05T02:45:26;29.42;;;15.57;;
21492;SDS011;10908;50.690;4.400;2022-12-05T02:47:54;29.15;;;14.55;;
21492;SDS011;10908;50.690;4.400;2022-12-05T02:50:22;27.05;;;13.98;;
21492;SDS011;10908;50.690;4.400;2022-12-05T02:52:53;28.83;;;14.68;;
21492;SDS011;10908;50.690;4.400;2022-12-05T02:55:22;26.80;;;14.15;;
21492;SDS011;10908;50.690;4.400;2022-12-05T02:57:51;26.60;;;14.50;;
21492;SDS011;10908;50.690;4.400;2022-12-05T03:00:21;24.52;;;14.02;;
21492;SDS011;10908;50.690;4.400;2022-12-05T03:02:47;27.67;;;13.70;;
21492;SDS011;10908;50.690;4.400;2022-12-05T03:05:23;25.45;;;13.90;;
21492;SDS011;10908;50.690;4.400;2022-12-05T03:08:12;24.75;;;13.40;;
21492;SDS011;10908;50.690;4.400;2022-12-05T03:10:41;26.20;;;13.20;;
21492;SDS011;10908;50.690;4.400;2022-12-05T03:13:11;27.45;;;14.20;;
21492;SDS011;10908;50.690;4.400;2022-12-05T03:15:44;24.55;;;13.75;;
21492;SDS011;10908;50.690;4.400;2022-12-05T03:20:43;24.90;;;13.65;;
21492;SDS011;10908;50.690;4.400;2022-12-05T03:23:29;25.40;;;13.82;;
21492;SDS011;10908;50.690;4.400;2022-12-05T03:26:15;26.38;;;13.55;;
21492;SDS011;10908;50.690;4.400;2022-12-05T03:32:06;26.92;;;15.00;;
21492;SDS011;10908;50.690;4.400;2022-12-05T03:34:48;27.75;;;14.02;;
21492;SDS011;10908;50.690;4.400;2022-12-05T03:42:56;26.30;;;14.32;;
21492;SDS011;10908;50.690;4.400;2022-12-05T03:45:45;30.27;;;14.93;;
21492;SDS011;10908;50.690;4.400;2022-12-05T03:50:43;30.52;;;14.98;;
21492;SDS011;10908;50.690;4.400;2022-12-05T03:53:34;27.20;;;14.85;;
21492;SDS011;10908;50.690;4.400;2022-12-05T03:56:29;29.85;;;15.38;;
21492;SDS011;10908;50.690;4.400;2022-12-05T04:01:41;30.80;;;14.52;;
21492;SDS011;10908;50.690;4.400;2022-12-05T04:04:10;31.83;;;16.73;;
21492;SDS011;10908;50.690;4.400;2022-12-05T04:06:40;35.17;;;17.80;;
21492;SDS011;10908;50.690;4.400;2022-12-05T04:09:10;36.45;;;17.58;;
21492;SDS011;10908;50.690;4.400;2022-12-05T04:11:56;32.85;;;15.85;;
21492;SDS011;10908;50.690;4.400;2022-12-05T04:14:31;37.53;;;16.77;;
21492;SDS011;10908;50.690;4.400;2022-12-05T04:17:07;36.03;;;17.63;;
21492;SDS011;10908;50.690;4.400;2022-12-05T04:19:58;37.75;;;18.20;;
21492;SDS011;10908;50.690;4.400;2022-12-05T04:22:52;39.05;;;17.77;;
21492;SDS011;10908;50.690;4.400;2022-12-05T04:25:18;40.38;;;18.10;;
21492;SDS011;10908;50.690;4.400;2022-12-05T04:33:22;37.17;;;18.63;;
21492;SDS011;10908;50.690;4.400;2022-12-05T04:36:18;37.22;;;17.92;;
21492;SDS011;10908;50.690;4.400;2022-12-05T04:38:57;38.47;;;18.10;;
21492;SDS011;10908;50.690;4.400;2022-12-05T04:41:33;36.92;;;17.83;;
21492;SDS011;10908;50.690;4.400;2022-12-05T04:44:07;37.42;;;17.33;;
21492;SDS011;10908;50.690;4.400;2022-12-05T04:46:39;38.53;;;17.75;;
21492;SDS011;10908;50.690;4.400;2022-12-05T04:49:08;43.92;;;19.75;;
21492;SDS011;10908;50.690;4.400;2022-12-05T04:51:36;42.60;;;18.45;;
21492;SDS011;10908;50.690;4.400;2022-12-05T04:54:07;41.67;;;19.00;;
21492;SDS011;10908;50.690;4.400;2022-12-05T04:56:42;37.35;;;17.98;;
21492;SDS011;10908;50.690;4.400;2022-12-05T04:59:10;36.60;;;18.23;;
21492;SDS011;10908;50.690;4.400;2022-12-05T05:01:38;41.70;;;19.02;;
21492;SDS011;10908;50.690;4.400;2022-12-05T05:04:12;37.78;;;18.08;;
21492;SDS011;10908;50.690;4.400;2022-12-05T05:06:43;40.20;;;18.05;;
21492;SDS011;10908;50.690;4.400;2022-12-05T05:09:09;39.13;;;18.92;;
21492;SDS011;10908;50.690;4.400;2022-12-05T05:11:35;35.78;;;17.95;;
21492;SDS011;10908;50.690;4.400;2022-12-05T05:14:02;36.38;;;18.33;;
21492;SDS011;10908;50.690;4.400;2022-12-05T05:16:36;36.35;;;17.70;;
21492;SDS011;10908;50.690;4.400;2022-12-05T05:19:04;41.13;;;18.45;;
21492;SDS011;10908;50.690;4.400;2022-12-05T05:21:32;40.88;;;18.80;;
21492;SDS011;10908;50.690;4.400;2022-12-05T05:24:03;43.38;;;18.65;;
21492;SDS011;10908;50.690;4.400;2022-12-05T05:26:32;45.13;;;19.00;;
21492;SDS011;10908;50.690;4.400;2022-12-05T05:29:00;42.28;;;19.40;;
21492;SDS011;10908;50.690;4.400;2022-12-05T05:31:26;42.47;;;19.02;;
21492;SDS011;10908;50.690;4.400;2022-12-05T05:33:53;56.42;;;20.85;;
21492;SDS011;10908;50.690;4.400;2022-12-05T05:36:20;51.90;;;21.10;;
21492;SDS011;10908;50.690;4.400;2022-12-05T05:38:49;56.67;;;22.27;;
21492;SDS011;10908;50.690;4.400;2022-12-05T05:41:20;54.58;;;22.00;;
21492;SDS011;10908;50.690;4.400;2022-12-05T05:43:57;55.08;;;22.33;;
21492;SDS011;10908;50.690;4.400;2022-12-05T05:46:24;62.78;;;23.00;;
21492;SDS011;10908;50.690;4.400;2022-12-05T05:48:52;61.92;;;22.17;;
21492;SDS011;10908;50.690;4.400;2022-12-05T05:51:19;63.13;;;24.27;;
21492;SDS011;10908;50.690;4.400;2022-12-05T05:53:45;64.38;;;24.02;;
21492;SDS011;10908;50.690;4.400;2022-12-05T05:56:15;66.00;;;25.17;;
21492;SDS011;10908;50.690;4.400;2022-12-05T05:58:43;74.65;;;23.83;;
21492;SDS011;10908;50.690;4.400;2022-12-05T06:01:10;61.63;;;23.63;;
21492;SDS011;10908;50.690;4.400;2022-12-05T06:03:46;59.75;;;23.30;;
21492;SDS011;10908;50.690;4.400;2022-12-05T06:06:12;87.78;;;25.75;;
21492;SDS011;10908;50.690;4.400;2022-12-05T06:08:39;63.85;;;24.33;;
21492;SDS011;10908;50.690;4.400;2022-12-05T06:11:11;81.13;;;25.02;;
21492;SDS011;10908;50.690;4.400;2022-12-05T06:13:38;67.97;;;25.05;;
21492;SDS011;10908;50.690;4.400;2022-12-05T06:16:05;73.05;;;25.05;;
21492;SDS011;10908;50.690;4.400;2022-12-05T06:18:35;62.13;;;24.63;;
21492;SDS011;10908;50.690;4.400;2022-12-05T06:21:01;64.72;;;23.88;;
21492;SDS011;10908;50.690;4.400;2022-12-05T06:23:28;66.68;;;25.55;;
21492;SDS011;10908;50.690;4.400;2022-12-05T06:25:54;70.32;;;24.95;;
21492;SDS011;10908;50.690;4.400;2022-12-05T06:28:21;62.25;;;24.25;;
21492;SDS011;10908;50.690;4.400;2022-12-05T06:30:48;69.85;;;28.08;;
21492;SDS011;10908;50.690;4.400;2022-12-05T06:33:16;64.65;;;26.05;;
21492;SDS011;10908;50.690;4.400;2022-12-05T06:35:42;65.70;;;26.80;;
21492;SDS011;10908;50.690;4.400;2022-12-05T06:38:08;71.07;;;28.38;;
21492;SDS011;10908;50.690;4.400;2022-12-05T06:40:34;59.28;;;25.83;;
21492;SDS011;10908;50.690;4.400;2022-12-05T06:43:05;60.97;;;24.65;;
21492;SDS011;10908;50.690;4.400;2022-12-05T06:45:30;58.25;;;25.05;;
21492;SDS011;10908;50.690;4.400;2022-12-05T06:47:56;59.88;;;25.23;;
21492;SDS011;10908;50.690;4.400;2022-12-05T06:50:21;55.22;;;23.80;;
21492;SDS011;10908;50.690;4.400;2022-12-05T06:52:48;52.50;;;22.98;;
21492;SDS011;10908;50.690;4.400;2022-12-05T06:55:14;51.17;;;22.00;;
21492;SDS011;10908;50.690;4.400;2022-12-05T06:57:40;46.78;;;21.27;;
21492;SDS011;10908;50.690;4.400;2022-12-05T07:00:06;42.97;;;20.67;;
21492;SDS011;10908;50.690;4.400;2022-12-05T07:02:51;45.67;;;21.98;;
21492;SDS011;10908;50.690;4.400;2022-12-05T07:05:17;48.33;;;21.75;;
21492;SDS011;10908;50.690;4.400;2022-12-05T07:07:44;47.42;;;22.05;;
21492;SDS011;10908;50.690;4.400;2022-12-05T07:10:10;48.13;;;21.98;;
21492;SDS011;10908;50.690;4.400;2022-12-05T07:12:35;48.33;;;21.33;;
21492;SDS011;10908;50.690;4.400;2022-12-05T07:15:02;49.45;;;22.92;;
21492;SDS011;10908;50.690;4.400;2022-12-05T07:17:28;53.35;;;23.02;;
21492;SDS011;10908;50.690;4.400;2022-12-05T07:19:53;51.42;;;23.45;;
21492;SDS011;10908;50.690;4.400;2022-12-05T07:22:20;54.88;;;22.50;;
21492;SDS011;10908;50.690;4.400;2022-12-05T07:24:46;51.72;;;22.52;;
21492;SDS011;10908;50.690;4.400;2022-12-05T07:27:13;54.38;;;23.17;;
21492;SDS011;10908;50.690;4.400;2022-12-05T07:29:39;52.05;;;22.80;;
21492;SDS011;10908;50.690;4.400;2022-12-05T07:32:05;50.08;;;21.95;;
21492;SDS011;10908;50.690;4.400;2022-12-05T07:34:31;47.97;;;21.20;;
21492;SDS011;10908;50.690;4.400;2022-12-05T07:36:57;52.67;;;22.50;;
21492;SDS011;10908;50.690;4.400;2022-12-05T07:39:24;52.67;;;23.63;;
21492;SDS011;10908;50.690;4.400;2022-12-05T07:41:49;60.28;;;27.25;;
21492;SDS011;10908;50.690;4.400;2022-12-05T07:44:15;57.55;;;26.88;;
21492;SDS011;10908;50.690;4.400;2022-12-05T07:46:41;58.40;;;27.42;;
21492;SDS011;10908;50.690;4.400;2022-12-05T07:49:07;53.10;;;24.00;;
21492;SDS011;10908;50.690;4.400;2022-12-05T07:51:33;49.03;;;22.83;;
21492;SDS011;10908;50.690;4.400;2022-12-05T07:53:59;47.70;;;22.58;;
21492;SDS011;10908;50.690;4.400;2022-12-05T07:56:25;45.72;;;21.42;;
21492;SDS011;10908;50.690;4.400;2022-12-05T07:58:51;55.60;;;24.45;;
21492;SDS011;10908;50.690;4.400;2022-12-05T08:01:21;50.55;;;23.67;;
21492;SDS011;10908;50.690;4.400;2022-12-05T08:03:49;50.85;;;23.15;;
21492;SDS011;10908;50.690;4.400;2022-12-05T08:06:18;51.17;;;22.55;;
21492;SDS011;10908;50.690;4.400;2022-12-05T08:08:45;50.53;;;23.05;;
21492;SDS011;10908;50.690;4.400;2022-12-05T08:11:16;50.72;;;23.60;;
21492;SDS011;10908;50.690;4.400;2022-12-05T08:13:54;55.40;;;24.40;;
21492;SDS011;10908;50.690;4.400;2022-12-05T08:16:22;51.85;;;24.60;;
21492;SDS011;10908;50.690;4.400;2022-12-05T08:18:57;54.75;;;26.02;;
21492;SDS011;10908;50.690;4.400;2022-12-05T08:21:27;56.47;;;26.45;;
21492;SDS011;10908;50.690;4.400;2022-12-05T08:23:54;61.90;;;28.55;;
21492;SDS011;10908;50.690;4.400;2022-12-05T08:26:24;57.50;;;27.65;;
21492;SDS011;10908;50.690;4.400;2022-12-05T08:28:52;55.35;;;25.77;;
21492;SDS011;10908;50.690;4.400;2022-12-05T08:31:20;51.83;;;24.52;;
21492;SDS011;10908;50.690;4.400;2022-12-05T08:33:47;50.03;;;23.20;;
21492;SDS011;10908;50.690;4.400;2022-12-05T08:36:13;48.88;;;22.85;;
21492;SDS011;10908;50.690;4.400;2022-12-05T08:38:40;49.38;;;23.00;;
21492;SDS011;10908;50.690;4.400;2022-12-05T08:41:07;46.50;;;21.60;;
21492;SDS011;10908;50.690;4.400;2022-12-05T08:43:35;43.58;;;21.65;;
21492;SDS011;10908;50.690;4.400;2022-12-05T08:46:01;43.75;;;21.15;;
21492;SDS011;10908;50.690;4.400;2022-12-05T08:48:29;39.90;;;20.38;;
21492;SDS011;10908;50.690;4.400;2022-12-05T08:50:56;35.17;;;19.20;;
21492;SDS011;10908;50.690;4.400;2022-12-05T08:53:23;39.83;;;19.70;;
21492;SDS011;10908;50.690;4.400;2022-12-05T08:55:48;39.75;;;19.15;;
21492;SDS011;10908;50.690;4.400;2022-12-05T08:58:14;39.40;;;19.98;;
21492;SDS011;10908;50.690;4.400;2022-12-05T09:00:40;34.17;;;18.95;;
21492;SDS011;10908;50.690;4.400;2022-12-05T09:03:07;38.75;;;19.10;;
21492;SDS011;10908;50.690;4.400;2022-12-05T09:05:34;37.55;;;18.55;;
21492;SDS011;10908;50.690;4.400;2022-12-05T09:08:00;35.53;;;18.63;;
21492;SDS011;10908;50.690;4.400;2022-12-05T09:10:26;31.30;;;17.35;;
21492;SDS011;10908;50.690;4.400;2022-12-05T09:12:52;38.85;;;18.35;;
21492;SDS011;10908;50.690;4.400;2022-12-05T09:15:18;41.83;;;19.70;;
21492;SDS011;10908;50.690;4.400;2022-12-05T09:17:43;37.10;;;18.83;;
21492;SDS011;10908;50.690;4.400;2022-12-05T09:20:09;38.00;;;19.13;;
21492;SDS011;10908;50.690;4.400;2022-12-05T09:22:38;41.47;;;20.42;;
21492;SDS011;10908;50.690;4.400;2022-12-05T09:25:04;36.40;;;19.20;;
21492;SDS011;10908;50.690;4.400;2022-12-05T09:27:30;35.30;;;18.60;;
21492;SDS011;10908;50.690;4.400;2022-12-05T09:29:56;33.97;;;18.17;;
21492;SDS011;10908;50.690;4.400;2022-12-05T09:32:22;34.70;;;18.10;;
21492;SDS011;10908;50.690;4.400;2022-12-05T09:34:47;36.05;;;18.65;;
21492;SDS011;10908;50.690;4.400;2022-12-05T09:37:13;32.72;;;17.70;;
21492;SDS011;10908;50.690;4.400;2022-12-05T09:39:38;31.95;;;18.52;;
21492;SDS011;10908;50.690;4.400;2022-12-05T09:47:49;38.13;;;18.30;;
21492;SDS011;10908;50.690;4.400;2022-12-05T09:53:13;39.75;;;20.30;;
21492;SDS011;10908;50.690;4.400;2022-12-05T10:01:28;35.35;;;19.15;;
21492;SDS011;10908;50.690;4.400;2022-12-05T10:17:44;32.08;;;18.38;;
21492;SDS011;10908;50.690;4.400;2022-12-05T10:20:32;36.05;;;18.38;;
21492;SDS011;10908;50.690;4.400;2022-12-05T10:23:05;35.33;;;18.55;;
21492;SDS011;10908;50.690;4.400;2022-12-05T10:25:39;33.65;;;18.70;;
21492;SDS011;10908;50.690;4.400;2022-12-05T10:28:10;29.73;;;17.23;;
21492;SDS011;10908;50.690;4.400;2022-12-05T10:30:42;34.08;;;18.20;;
21492;SDS011;10908;50.690;4.400;2022-12-05T10:33:15;33.90;;;18.00;;
21492;SDS011;10908;50.690;4.400;2022-12-05T10:35:44;37.58;;;19.10;;
21492;SDS011;10908;50.690;4.400;2022-12-05T10:38:27;34.63;;;18.90;;
21492;SDS011;10908;50.690;4.400;2022-12-05T10:40:57;33.60;;;18.17;;
21492;SDS011;10908;50.690;4.400;2022-12-05T10:43:25;31.80;;;18.13;;
21492;SDS011;10908;50.690;4.400;2022-12-05T10:45:55;37.95;;;20.42;;
21492;SDS011;10908;50.690;4.400;2022-12-05T10:48:22;36.00;;;18.27;;
21492;SDS011;10908;50.690;4.400;2022-12-05T10:50:49;35.17;;;18.70;;
21492;SDS011;10908;50.690;4.400;2022-12-05T10:53:18;32.88;;;18.20;;
21492;SDS011;10908;50.690;4.400;2022-12-05T10:55:48;32.42;;;17.10;;
21492;SDS011;10908;50.690;4.400;2022-12-05T10:58:18;33.67;;;17.40;;
21492;SDS011;10908;50.690;4.400;2022-12-05T11:00:48;31.75;;;16.60;;
21492;SDS011;10908;50.690;4.400;2022-12-05T11:05:58;30.65;;;17.17;;
21492;SDS011;10908;50.690;4.400;2022-12-05T11:08:27;27.25;;;15.73;;
21492;SDS011;10908;50.690;4.400;2022-12-05T11:11:02;24.88;;;14.50;;
21492;SDS011;10908;50.690;4.400;2022-12-05T11:16:53;28.45;;;16.50;;
21492;SDS011;10908;50.690;4.400;2022-12-05T11:21:53;25.60;;;14.00;;
21492;SDS011;10908;50.690;4.400;2022-12-05T11:24:32;24.92;;;14.82;;
21492;SDS011;10908;50.690;4.400;2022-12-05T11:27:25;26.08;;;14.73;;
21492;SDS011;10908;50.690;4.400;2022-12-05T11:29:56;23.70;;;13.98;;
21492;SDS011;10908;50.690;4.400;2022-12-05T11:32:25;26.13;;;14.52;;
21492;SDS011;10908;50.690;4.400;2022-12-05T11:34:57;23.15;;;14.77;;
21492;SDS011;10908;50.690;4.400;2022-12-05T11:37:27;23.90;;;13.90;;
21492;SDS011;10908;50.690;4.400;2022-12-05T11:39:55;24.13;;;14.60;;
21492;SDS011;10908;50.690;4.400;2022-12-05T11:42:24;23.15;;;13.88;;
21492;SDS011;10908;50.690;4.400;2022-12-05T11:45:11;23.63;;;13.48;;
21492;SDS011;10908;50.690;4.400;2022-12-05T11:47:53;24.15;;;13.27;;
21492;SDS011;10908;50.690;4.400;2022-12-05T11:50:59;23.00;;;13.15;;
21492;SDS011;10908;50.690;4.400;2022-12-05T11:53:54;22.48;;;13.35;;
21492;SDS011;10908;50.690;4.400;2022-12-05T12:05:10;20.83;;;12.25;;
21492;SDS011;10908;50.690;4.400;2022-12-05T12:10:51;22.80;;;13.80;;
21492;SDS011;10908;50.690;4.400;2022-12-05T12:16:42;23.02;;;13.88;;
21492;SDS011;10908;50.690;4.400;2022-12-05T12:19:24;22.90;;;13.20;;
21492;SDS011;10908;50.690;4.400;2022-12-05T12:24:32;23.73;;;14.13;;
21492;SDS011;10908;50.690;4.400;2022-12-05T12:35:29;22.65;;;13.43;;
21492;SDS011;10908;50.690;4.400;2022-12-05T12:40:47;21.42;;;12.48;;
21492;SDS011;10908;50.690;4.400;2022-12-05T12:49:30;20.80;;;11.98;;
21492;SDS011;10908;50.690;4.400;2022-12-05T12:52:14;21.33;;;12.27;;
21492;SDS011;10908;50.690;4.400;2022-12-05T12:58:00;22.38;;;12.82;;
21492;SDS011;10908;50.690;4.400;2022-12-05T13:00:59;19.98;;;12.23;;
21492;SDS011;10908;50.690;4.400;2022-12-05T13:03:26;22.70;;;12.95;;
21492;SDS011;10908;50.690;4.400;2022-12-05T13:06:03;21.73;;;12.93;;
21492;SDS011;10908;50.690;4.400;2022-12-05T13:08:38;21.90;;;13.40;;
21492;SDS011;10908;50.690;4.400;2022-12-05T13:11:06;23.45;;;13.05;;
21492;SDS011;10908;50.690;4.400;2022-12-05T13:13:42;21.90;;;13.65;;
21492;SDS011;10908;50.690;4.400;2022-12-05T13:16:12;22.25;;;12.60;;
21492;SDS011;10908;50.690;4.400;2022-12-05T13:18:45;22.15;;;13.05;;
21492;SDS011;10908;50.690;4.400;2022-12-05T13:21:11;23.25;;;13.35;;
21492;SDS011;10908;50.690;4.400;2022-12-05T13:23:47;21.92;;;13.27;;
21492;SDS011;10908;50.690;4.400;2022-12-05T13:26:16;22.20;;;13.25;;
21492;SDS011;10908;50.690;4.400;2022-12-05T13:28:55;21.88;;;12.95;;
21492;SDS011;10908;50.690;4.400;2022-12-05T13:34:02;26.88;;;14.25;;
21492;SDS011;10908;50.690;4.400;2022-12-05T13:36:29;22.65;;;14.02;;
21492;SDS011;10908;50.690;4.400;2022-12-05T13:39:24;23.10;;;14.07;;
21492;SDS011;10908;50.690;4.400;2022-12-05T13:42:23;24.10;;;13.43;;
21492;SDS011;10908;50.690;4.400;2022-12-05T13:44:54;25.05;;;14.73;;
21492;SDS011;10908;50.690;4.400;2022-12-05T13:52:28;29.67;;;15.35;;
21492;SDS011;10908;50.690;4.400;2022-12-05T14:07:46;22.17;;;13.57;;
21492;SDS011;10908;50.690;4.400;2022-12-05T14:10:20;25.92;;;14.15;;
21492;SDS011;10908;50.690;4.400;2022-12-05T14:15:37;24.85;;;13.35;;
21492;SDS011;10908;50.690;4.400;2022-12-05T14:21:21;27.05;;;15.07;;
21492;SDS011;10908;50.690;4.400;2022-12-05T14:32:38;24.48;;;14.50;;
21492;SDS011;10908;50.690;4.400;2022-12-05T14:36:11;25.75;;;15.50;;
21492;SDS011;10908;50.690;4.400;2022-12-05T14:38:06;24.83;;;14.45;;
21492;SDS011;10908;50.690;4.400;2022-12-05T14:40:42;23.70;;;13.98;;
21492;SDS011;10908;50.690;4.400;2022-12-05T14:55:39;20.70;;;11.50;;
21492;SDS011;10908;50.690;4.400;2022-12-05T14:58:16;19.65;;;11.80;;
21492;SDS011;10908;50.690;4.400;2022-12-05T15:00:45;18.95;;;12.13;;
21492;SDS011;10908;50.690;4.400;2022-12-05T15:03:24;20.65;;;12.77;;
21492;SDS011;10908;50.690;4.400;2022-12-05T15:06:04;22.50;;;13.35;;
21492;SDS011;10908;50.690;4.400;2022-12-05T15:08:38;22.75;;;14.18;;
21492;SDS011;10908;50.690;4.400;2022-12-05T15:11:17;22.20;;;13.52;;
21492;SDS011;10908;50.690;4.400;2022-12-05T15:14:10;21.60;;;13.30;;
21492;SDS011;10908;50.690;4.400;2022-12-05T15:16:44;22.33;;;13.60;;
21492;SDS011;10908;50.690;4.400;2022-12-05T15:19:30;21.73;;;12.63;;
21492;SDS011;10908;50.690;4.400;2022-12-05T15:22:07;21.40;;;13.02;;
21492;SDS011;10908;50.690;4.400;2022-12-05T15:24:36;21.80;;;13.10;;
21492;SDS011;10908;50.690;4.400;2022-12-05T15:27:03;26.48;;;14.35;;
21492;SDS011;10908;50.690;4.400;2022-12-05T15:29:30;23.52;;;14.73;;
21492;SDS011;10908;50.690;4.400;2022-12-05T15:31:58;27.13;;;14.70;;
21492;SDS011;10908;50.690;4.400;2022-12-05T15:34:39;25.05;;;14.68;;
21492;SDS011;10908;50.690;4.400;2022-12-05T15:37:49;28.45;;;14.77;;
21492;SDS011;10908;50.690;4.400;2022-12-05T15:40:21;25.15;;;13.80;;
21492;SDS011;10908;50.690;4.400;2022-12-05T15:58:39;29.00;;;17.77;;
21492;SDS011;10908;50.690;4.400;2022-12-05T16:01:22;27.92;;;16.23;;
21492;SDS011;10908;50.690;4.400;2022-12-05T16:03:57;28.70;;;16.80;;
21492;SDS011;10908;50.690;4.400;2022-12-05T16:09:17;30.42;;;17.13;;
21492;SDS011;10908;50.690;4.400;2022-12-05T16:11:59;28.65;;;17.10;;
21492;SDS011;10908;50.690;4.400;2022-12-05T16:14:34;31.05;;;17.38;;
21492;SDS011;10908;50.690;4.400;2022-12-05T16:17:03;52.10;;;25.35;;
21492;SDS011;10908;50.690;4.400;2022-12-05T16:19:31;49.72;;;26.00;;
21492;SDS011;10908;50.690;4.400;2022-12-05T16:21:58;39.13;;;22.60;;
21492;SDS011;10908;50.690;4.400;2022-12-05T16:24:30;39.17;;;21.17;;
21492;SDS011;10908;50.690;4.400;2022-12-05T16:27:20;36.35;;;21.10;;
21492;SDS011;10908;50.690;4.400;2022-12-05T16:32:47;37.03;;;21.23;;
21492;SDS011;10908;50.690;4.400;2022-12-05T16:35:29;37.33;;;22.20;;
21492;SDS011;10908;50.690;4.400;2022-12-05T16:38:24;35.83;;;19.88;;
21492;SDS011;10908;50.690;4.400;2022-12-05T16:40:57;34.88;;;20.75;;
21492;SDS011;10908;50.690;4.400;2022-12-05T16:45:55;34.80;;;19.23;;
21492;SDS011;10908;50.690;4.400;2022-12-05T16:53:38;45.38;;;25.58;;
21492;SDS011;10908;50.690;4.400;2022-12-05T16:56:12;33.55;;;20.55;;
21492;SDS011;10908;50.690;4.400;2022-12-05T16:59:08;30.83;;;19.45;;
21492;SDS011;10908;50.690;4.400;2022-12-05T17:01:44;30.25;;;18.90;;
21492;SDS011;10908;50.690;4.400;2022-12-05T17:04:10;33.65;;;18.30;;
21492;SDS011;10908;50.690;4.400;2022-12-05T17:06:35;32.38;;;19.27;;
21492;SDS011;10908;50.690;4.400;2022-12-05T17:09:01;38.97;;;22.35;;
21492;SDS011;10908;50.690;4.400;2022-12-05T17:11:28;40.22;;;23.08;;
21492;SDS011;10908;50.690;4.400;2022-12-05T17:13:56;43.28;;;23.55;;
21492;SDS011;10908;50.690;4.400;2022-12-05T17:16:23;36.97;;;21.13;;
21492;SDS011;10908;50.690;4.400;2022-12-05T17:18:50;44.38;;;24.10;;
21492;SDS011;10908;50.690;4.400;2022-12-05T17:21:17;54.17;;;29.70;;
21492;SDS011;10908;50.690;4.400;2022-12-05T17:23:45;43.28;;;22.58;;
21492;SDS011;10908;50.690;4.400;2022-12-05T17:26:15;40.08;;;20.38;;
21492;SDS011;10908;50.690;4.400;2022-12-05T17:28:43;38.10;;;20.63;;
21492;SDS011;10908;50.690;4.400;2022-12-05T17:31:14;36.92;;;19.48;;
21492;SDS011;10908;50.690;4.400;2022-12-05T17:33:42;39.42;;;19.75;;
21492;SDS011;10908;50.690;4.400;2022-12-05T17:36:09;37.65;;;19.65;;
21492;SDS011;10908;50.690;4.400;2022-12-05T17:38:35;44.47;;;21.63;;
21492;SDS011;10908;50.690;4.400;2022-12-05T17:41:01;42.63;;;20.55;;
21492;SDS011;10908;50.690;4.400;2022-12-05T17:43:27;43.97;;;20.52;;
21492;SDS011;10908;50.690;4.400;2022-12-05T17:45:52;41.22;;;20.40;;
21492;SDS011;10908;50.690;4.400;2022-12-05T17:48:18;47.67;;;21.73;;
21492;SDS011;10908;50.690;4.400;2022-12-05T17:50:45;43.05;;;21.85;;
21492;SDS011;10908;50.690;4.400;2022-12-05T17:53:12;44.03;;;22.83;;
21492;SDS011;10908;50.690;4.400;2022-12-05T17:55:40;44.63;;;21.80;;
21492;SDS011;10908;50.690;4.400;2022-12-05T17:58:06;47.45;;;22.65;;
21492;SDS011;10908;50.690;4.400;2022-12-05T18:00:32;49.50;;;25.55;;
21492;SDS011;10908;50.690;4.400;2022-12-05T18:02:57;44.60;;;21.42;;
21492;SDS011;10908;50.690;4.400;2022-12-05T18:05:23;41.60;;;21.60;;
21492;SDS011;10908;50.690;4.400;2022-12-05T18:07:49;44.40;;;20.83;;